THY B738 at Antakya on Oct 6th 2022, burst all main tyres on landing

Last Update: October 6, 2022 / 13:28:35 GMT/Zulu time

Bookmark this article
Incident Facts

Date of incident
Oct 6, 2022

Classification
Incident

Flight number
TK-2256

Destination
Antakya, Turkey

Aircraft Registration
TC-JVN

Aircraft Type
Boeing 737-800

ICAO Type Designator
B738

Airport ICAO Code
LTDA

A THY Turkish Airlines Boeing 737-800, registration TC-JVN performing flight TK-2256 from Istanbul to Antakya (Turkey) with 104 passengers and 6 crew, landed on Antakya's runway 04 but burst all 4 main tyres on landing and came to a stop with overheating landing gear. The aircraft was evacuated, emergency services cooled the landing gear.

The airport reported upon landing on runway 04 the tyres exploded and caught fire, the aircraft stopped about 2000 meters/6560 feet down the runway, emergency services quickly responded and put the fire out.

The airline reported the tyres exploded on landing causing the landing gear to overheat. There were no injuries during the evacuation.

According to information The Aviation Herald received the aircraft had been dispatched with the Anti-Skid System inoperative.

Metars:
LTDA 060150Z 03001KT 9999 FEW040 18/16 Q1014 NOSIG=
LTDA 060050Z 02004KT 9999 FEW040 19/17 Q1014 NOSIG=
LTDA 052350Z VRB02KT 9999 FEW040 19/17 Q1014 NOSIG=
LTDA 052250Z 03004KT 9999 FEW040 20/17 Q1015 NOSIG=
LTDA 052150Z 24010KT 9999 FEW040 SCT200 23/18 Q1014 NOSIG=
Incident Facts

Date of incident
Oct 6, 2022

Classification
Incident

Flight number
TK-2256

Destination
Antakya, Turkey

Aircraft Registration
TC-JVN

Aircraft Type
Boeing 737-800

ICAO Type Designator
B738

Airport ICAO Code
LTDA

This article is published under license from Avherald.com. © of text by Avherald.com.
Article source

You can read 2 more free articles without a subscription.

Subscribe now and continue reading without any limits!

Are you a subscriber? Login
Subscribe

Read unlimited articles and receive our daily update briefing. Gain better insights into what is happening in commercial aviation safety.

Free newsletter

Want to know more and stay ahead? Get our free weekly newsletter and join 5469 existing subscribers.

By subscribing, you accept our terms and conditions and confirm that you've read our privacy policy.

Send tip

Support AeroInside by sending a small tip amount.

Related articles

Newest articles

Subscribe today

Are you researching aviation incidents? Get access to AeroInside Insights, unlimited read access and receive the daily newsletter.

Pick your plan and subscribe

Partner

Blockaviation logo

A new way to document and demonstrate airworthiness compliance and aircraft value. Find out more.

Virtual Speech logo

ELITE Simulation Solutions is a leading global provider of Flight Simulation Training Devices, IFR training software as well as flight controls and related services. Find out more.

Get updates

Never miss an article from AeroInside. Subscribe to our free weekly newsletter and join 5469 existing subscribers.

By subscribing, you accept our terms and conditions and that you've read our privacy policy.

AeroInside Blog
Popular aircraft
Airbus A320
Boeing 737-800
Boeing 737-800 MAX
Popular airlines
American Airlines
United
Delta
Air Canada
Lufthansa
British Airways